createdAt,value
2022-11-10T00:02:12.167Z,100.00
2022-11-10T00:04:39.180Z,100.00
2022-11-10T00:07:06.112Z,100.00
2022-11-10T00:09:33.925Z,100.00
2022-11-10T00:12:00.767Z,100.00
2022-11-10T00:15:02.949Z,100.00
2022-11-10T00:17:29.877Z,100.00
2022-11-10T00:20:02.800Z,100.00
2022-11-10T00:22:29.600Z,100.00
2022-11-10T00:24:56.443Z,100.00
2022-11-10T00:27:23.572Z,100.00
2022-11-10T00:29:55.465Z,100.00
2022-11-10T00:32:22.425Z,100.00
2022-11-10T00:39:15.722Z,100.00
2022-11-10T00:41:43.602Z,100.00
2022-11-10T00:44:10.431Z,100.00
2022-11-10T00:46:37.256Z,100.00
2022-11-10T00:49:04.234Z,100.00
2022-11-10T00:51:31.133Z,100.00
2022-11-10T00:53:58.207Z,100.00
2022-11-10T00:56:25.613Z,100.00
2022-11-10T00:58:52.470Z,100.00
2022-11-10T01:01:26.853Z,100.00
2022-11-10T01:03:55.274Z,100.00
2022-11-10T01:06:22.372Z,100.00
2022-11-10T01:08:49.388Z,100.00
2022-11-10T01:11:27.784Z,100.00
2022-11-10T01:13:56.185Z,100.00
2022-11-10T01:16:32.536Z,100.00
2022-11-10T01:19:01.741Z,100.00
2022-11-10T01:21:31.698Z,100.00
2022-11-10T01:23:59.057Z,100.00
2022-11-10T01:26:25.934Z,100.00
2022-11-10T01:28:54.122Z,100.00
2022-11-10T01:31:23.378Z,100.00
2022-11-10T01:35:02.046Z,100.00
2022-11-10T01:37:28.965Z,100.00
2022-11-10T01:39:58.631Z,100.00
2022-11-10T01:42:28.248Z,100.00
2022-11-10T01:45:23.143Z,100.00
2022-11-10T01:47:53.355Z,100.00
2022-11-10T01:50:26.264Z,100.00
2022-11-10T01:52:56.932Z,100.00
2022-11-10T01:55:26.794Z,100.00
2022-11-10T01:57:54.458Z,100.00
2022-11-10T02:00:22.119Z,100.00
2022-11-10T02:03:08.990Z,100.00
2022-11-10T02:05:36.744Z,100.00
2022-11-10T02:08:05.447Z,100.00
2022-11-10T02:10:32.704Z,100.00
2022-11-10T02:13:03.112Z,100.00
2022-11-10T02:15:29.952Z,100.00
2022-11-10T02:17:56.900Z,100.00
2022-11-10T02:20:23.886Z,100.00
2022-11-10T02:22:50.695Z,100.00
2022-11-10T02:25:22.817Z,100.00
2022-11-10T02:27:49.745Z,100.00
2022-11-10T02:30:21.965Z,100.00
2022-11-10T02:32:51.963Z,100.00
2022-11-10T02:35:19.050Z,100.00
2022-11-10T02:37:45.958Z,100.00
2022-11-10T02:40:14.090Z,100.00
2022-11-10T02:42:41.112Z,100.00
2022-11-10T02:45:08.886Z,100.00
2022-11-10T02:47:35.756Z,100.00
2022-11-10T02:50:02.607Z,100.00
2022-11-10T02:52:29.568Z,100.00
2022-11-10T02:54:56.660Z,100.00
2022-11-10T02:57:23.483Z,100.00
2022-11-10T02:59:50.381Z,100.00
2022-11-10T03:02:19.971Z,100.00
2022-11-10T03:04:48.205Z,100.00
2022-11-10T03:07:15.675Z,100.00
2022-11-10T03:09:45.273Z,100.00
2022-11-10T03:12:14.715Z,100.00
2022-11-10T03:14:42.060Z,100.00
2022-11-10T03:17:09.178Z,100.00
2022-11-10T03:19:36.133Z,100.00
2022-11-10T03:22:03.120Z,100.00
2022-11-10T03:24:31.451Z,100.00
2022-11-10T03:26:58.321Z,100.00
2022-11-10T03:29:25.237Z,100.00
2022-11-10T03:31:52.081Z,100.00
2022-11-10T03:34:18.973Z,100.00
2022-11-10T03:36:45.772Z,100.00
2022-11-10T03:39:15.343Z,100.00
2022-11-10T03:41:42.221Z,100.00
2022-11-10T03:44:09.102Z,100.00
2022-11-10T03:46:35.949Z,100.00
2022-11-10T03:49:02.886Z,100.00
2022-11-10T03:51:29.608Z,100.00
2022-11-10T03:53:56.462Z,100.00
2022-11-10T03:56:23.262Z,100.00
2022-11-10T03:58:50.006Z,100.00
2022-11-10T04:01:18.307Z,100.00
2022-11-10T04:03:50.160Z,100.00
2022-11-10T04:06:37.303Z,100.00
2022-11-10T04:09:06.576Z,100.00
2022-11-10T04:11:52.558Z,100.00
2022-11-10T04:14:37.926Z,100.00
2022-11-10T04:17:04.793Z,100.00
2022-11-10T04:19:36.164Z,100.00
2022-11-10T04:22:02.982Z,100.00
2022-11-10T04:24:29.907Z,100.00
2022-11-10T04:26:56.869Z,100.00
2022-11-10T04:29:29.188Z,100.00
2022-11-10T04:31:56.083Z,100.00
2022-11-10T04:34:22.929Z,100.00
2022-11-10T04:36:49.725Z,100.00
2022-11-10T04:39:16.705Z,100.00
2022-11-10T04:41:43.719Z,100.00
2022-11-10T04:44:13.173Z,100.00
2022-11-10T04:46:43.675Z,100.00
2022-11-10T04:49:11.318Z,100.00
2022-11-10T04:51:39.410Z,100.00
2022-11-10T04:54:14.114Z,100.00
2022-11-10T04:56:41.165Z,100.00
2022-11-10T04:59:08.130Z,100.00
2022-11-10T05:01:34.972Z,100.00
2022-11-10T05:04:02.048Z,100.00
2022-11-10T05:06:29.076Z,100.00
2022-11-10T05:08:56.024Z,100.00
2022-11-10T05:11:30.382Z,100.00
2022-11-10T05:13:57.186Z,100.00
2022-11-10T05:16:24.112Z,100.00
2022-11-10T05:18:54.292Z,100.00
2022-11-10T05:21:21.344Z,100.00
2022-11-10T05:23:48.350Z,100.00
2022-11-10T05:26:17.759Z,100.00
2022-11-10T05:28:47.157Z,100.00
2022-11-10T05:31:14.030Z,100.00
2022-11-10T05:33:40.904Z,100.00
2022-11-10T05:36:08.327Z,100.00
2022-11-10T05:38:40.246Z,100.00
2022-11-10T05:41:10.133Z,100.00
2022-11-10T05:43:37.249Z,100.00
2022-11-10T05:46:06.825Z,100.00
2022-11-10T05:48:33.789Z,100.00
2022-11-10T05:51:00.836Z,100.00
2022-11-10T05:53:27.783Z,100.00
2022-11-10T05:55:54.703Z,100.00
2022-11-10T05:58:21.896Z,100.00
2022-11-10T06:00:48.797Z,100.00
2022-11-10T06:03:26.572Z,100.00
2022-11-10T06:05:53.639Z,100.00
2022-11-10T06:08:21.059Z,100.00
2022-11-10T06:10:49.051Z,100.00
2022-11-10T06:13:15.795Z,100.00
2022-11-10T06:15:47.505Z,100.00
2022-11-10T06:18:19.725Z,100.00
2022-11-10T06:20:49.453Z,100.00
2022-11-10T06:23:23.298Z,100.00
2022-11-10T06:25:51.288Z,100.00
2022-11-10T06:28:18.087Z,100.00
2022-11-10T06:30:44.761Z,100.00
2022-11-10T06:33:14.241Z,100.00
2022-11-10T06:35:41.062Z,100.00
2022-11-10T06:38:11.578Z,100.00
2022-11-10T06:40:41.939Z,100.00
2022-11-10T06:43:08.730Z,100.00
2022-11-10T06:45:35.580Z,100.00
2022-11-10T06:48:09.599Z,100.00
2022-11-10T06:50:38.700Z,100.00
2022-11-10T06:53:05.922Z,100.00
2022-11-10T06:55:33.047Z,100.00
2022-11-10T06:57:59.959Z,100.00
2022-11-10T07:00:28.575Z,100.00
2022-11-10T07:03:08.642Z,100.00
2022-11-10T07:06:03.076Z,100.00
2022-11-10T07:09:19.049Z,100.00
2022-11-10T07:12:04.763Z,100.00
2022-11-10T07:14:37.501Z,100.00
2022-11-10T07:17:31.380Z,100.00
2022-11-10T07:20:04.416Z,100.00
2022-11-10T07:22:42.779Z,100.00
2022-11-10T07:29:40.170Z,100.00
2022-11-10T07:32:22.904Z,100.00
2022-11-10T07:34:58.852Z,100.00
2022-11-10T07:37:25.955Z,100.00
2022-11-10T07:39:55.085Z,100.00
2022-11-10T07:42:31.563Z,100.00
2022-11-10T07:44:58.808Z,100.00
2022-11-10T07:47:25.790Z,100.00
2022-11-10T07:49:52.612Z,100.00
2022-11-10T07:52:19.426Z,100.00
2022-11-10T07:54:46.446Z,100.00
2022-11-10T07:57:17.835Z,100.00
2022-11-10T07:59:44.646Z,100.00
2022-11-10T08:02:12.156Z,100.00
2022-11-10T08:04:39.046Z,100.00
2022-11-10T08:07:06.045Z,100.00
2022-11-10T08:09:33.226Z,100.00
2022-11-10T08:12:01.152Z,100.00
2022-11-10T08:14:30.341Z,100.00
2022-11-10T08:17:00.556Z,100.00
2022-11-10T08:19:27.403Z,100.00
2022-11-10T08:22:05.326Z,100.00
2022-11-10T08:24:36.784Z,100.00
2022-11-10T08:27:03.675Z,100.00
2022-11-10T08:29:30.950Z,100.00
2022-11-10T08:31:58.102Z,100.00
2022-11-10T08:34:28.152Z,100.00
2022-11-10T08:36:55.072Z,100.00
2022-11-10T08:39:38.486Z,100.00
2022-11-10T08:42:13.943Z,100.00
2022-11-10T08:44:40.954Z,100.00
2022-11-10T08:47:10.700Z,100.00
2022-11-10T08:49:37.464Z,100.00
2022-11-10T08:52:05.765Z,100.00
2022-11-10T08:54:36.054Z,100.00
2022-11-10T08:57:04.834Z,100.00
2022-11-10T08:59:34.988Z,100.00
2022-11-10T09:02:01.755Z,100.00
2022-11-10T09:04:28.599Z,100.00
2022-11-10T09:06:57.965Z,100.00
2022-11-10T09:09:26.512Z,100.00
2022-11-10T09:11:53.318Z,100.00
2022-11-10T09:14:20.617Z,100.00
2022-11-10T09:16:57.281Z,100.00
2022-11-10T09:19:24.092Z,100.00
2022-11-10T09:22:02.305Z,100.00
2022-11-10T09:24:31.496Z,100.00
2022-11-10T09:26:58.575Z,100.00
2022-11-10T09:29:26.045Z,100.00
2022-11-10T09:31:53.048Z,100.00
2022-11-10T09:34:19.723Z,100.00
2022-11-10T09:36:46.613Z,100.00
2022-11-10T09:39:15.481Z,100.00
2022-11-10T09:41:44.028Z,100.00
2022-11-10T09:44:28.242Z,100.00
2022-11-10T09:47:03.110Z,100.00
2022-11-10T09:49:40.810Z,100.00
2022-11-10T09:52:10.677Z,100.00
2022-11-10T09:54:46.022Z,100.00
2022-11-10T09:57:20.496Z,100.00
2022-11-10T09:59:47.851Z,100.00
2022-11-10T10:02:33.030Z,100.00
2022-11-10T10:05:07.442Z,99.81
2022-11-10T10:07:43.518Z,98.74
2022-11-10T10:10:32.969Z,98.80
2022-11-10T10:13:22.741Z,97.92
2022-11-10T10:15:49.794Z,93.79
2022-11-10T10:18:43.708Z,94.52
2022-11-10T10:21:21.156Z,93.94
2022-11-10T10:24:10.300Z,92.17
2022-11-10T10:27:01.847Z,93.57
2022-11-10T10:29:37.715Z,93.81
2022-11-10T10:32:13.361Z,92.04
2022-11-10T10:34:42.276Z,93.37
2022-11-10T10:37:49.934Z,90.48
2022-11-10T10:40:19.966Z,91.70
2022-11-10T10:42:48.206Z,90.64
2022-11-10T10:45:16.441Z,90.23
2022-11-10T10:48:03.450Z,89.95
2022-11-10T10:50:35.875Z,88.70
2022-11-10T10:53:14.001Z,90.24
2022-11-10T10:56:02.223Z,90.55
2022-11-10T10:58:51.018Z,89.17
2022-11-10T11:01:31.146Z,88.75
2022-11-10T11:03:59.774Z,87.12
2022-11-10T11:06:39.295Z,87.62
2022-11-10T11:09:16.642Z,87.09
2022-11-10T11:11:47.606Z,89.50
2022-11-10T11:14:34.251Z,89.58
2022-11-10T11:17:24.746Z,88.96
2022-11-10T11:19:59.904Z,87.87
2022-11-10T11:22:37.780Z,89.17
2022-11-10T11:25:28.159Z,90.40
2022-11-10T11:28:44.465Z,86.60
2022-11-10T11:31:27.593Z,88.81
2022-11-10T11:34:48.031Z,89.59
2022-11-10T11:38:16.256Z,88.01
2022-11-10T11:40:57.895Z,87.96
2022-11-10T11:43:59.877Z,87.57
2022-11-10T11:46:46.378Z,87.41
2022-11-10T11:49:30.169Z,88.02
2022-11-10T11:52:29.097Z,86.95
2022-11-10T11:55:40.136Z,87.30
2022-11-10T11:58:44.241Z,88.26
2022-11-10T12:01:38.364Z,86.39
2022-11-10T12:04:24.629Z,85.15
2022-11-10T12:11:57.623Z,84.16
2022-11-10T12:14:50.026Z,84.23
2022-11-10T12:25:38.086Z,82.34
2022-11-10T12:28:52.764Z,82.18
2022-11-10T12:31:36.275Z,82.17
2022-11-10T12:34:28.634Z,77.10
2022-11-10T12:37:12.119Z,78.87
2022-11-10T12:39:46.624Z,77.93
2022-11-10T12:42:23.200Z,77.36
2022-11-10T12:45:39.695Z,75.81
2022-11-10T12:48:15.106Z,76.84
2022-11-10T12:51:00.111Z,77.12
2022-11-10T12:53:41.557Z,77.09
2022-11-10T12:56:31.583Z,74.94
2022-11-10T12:59:19.376Z,76.57
2022-11-10T13:02:23.634Z,77.27
2022-11-10T13:05:32.319Z,77.75
2022-11-10T13:08:28.140Z,77.89
2022-11-10T13:11:23.348Z,75.36
2022-11-10T13:14:29.747Z,73.17
2022-11-10T13:17:13.081Z,72.82
2022-11-10T13:19:51.720Z,73.51
2022-11-10T13:22:52.299Z,74.34
2022-11-10T13:25:39.616Z,75.35
2022-11-10T13:28:13.028Z,73.73
2022-11-10T13:30:48.914Z,76.54
2022-11-10T13:34:01.720Z,74.55
2022-11-10T13:36:44.101Z,73.61
2022-11-10T13:39:22.080Z,74.82
2022-11-10T13:42:19.976Z,74.24
2022-11-10T13:45:10.146Z,74.31
2022-11-10T13:48:02.293Z,74.32
2022-11-10T13:50:59.976Z,74.28
2022-11-10T13:53:43.682Z,75.13
2022-11-10T13:56:48.182Z,76.29
2022-11-10T13:59:22.812Z,75.10
2022-11-10T14:01:51.242Z,73.85
2022-11-10T14:04:46.637Z,76.82
2022-11-10T14:07:21.996Z,78.27
2022-11-10T14:09:52.512Z,74.11
2022-11-10T14:12:28.078Z,73.52
2022-11-10T14:15:11.608Z,74.23
2022-11-10T14:17:47.016Z,75.31
2022-11-10T14:20:42.757Z,77.36
2022-11-10T14:23:48.575Z,76.65
2022-11-10T14:26:23.181Z,75.01
2022-11-10T14:28:54.788Z,76.62
2022-11-10T14:31:25.276Z,77.56
2022-11-10T14:34:12.829Z,74.79
2022-11-10T14:37:01.662Z,75.82
2022-11-10T14:39:39.997Z,75.90
2022-11-10T14:42:07.113Z,76.54
2022-11-10T14:44:38.167Z,75.86
2022-11-10T14:47:43.651Z,77.83
2022-11-10T14:50:18.288Z,77.26
2022-11-10T14:53:04.624Z,78.86
2022-11-10T14:56:08.272Z,79.57
2022-11-10T14:58:43.926Z,80.35
2022-11-10T15:01:47.623Z,80.21
2022-11-10T15:04:16.975Z,80.35
2022-11-10T15:06:47.052Z,80.74
2022-11-10T15:09:37.583Z,81.02
2022-11-10T15:12:27.461Z,81.05
2022-11-10T15:14:59.894Z,81.17
2022-11-10T15:18:42.660Z,81.73
2022-11-10T15:21:42.384Z,81.72
2022-11-10T15:25:13.830Z,82.13
2022-11-10T15:31:14.542Z,82.62
2022-11-10T15:34:13.605Z,82.63
2022-11-10T15:36:54.562Z,83.07
2022-11-10T15:39:35.154Z,83.37
2022-11-10T15:42:34.296Z,83.72
2022-11-10T15:45:15.310Z,84.12
2022-11-10T15:47:49.922Z,84.23
2022-11-10T15:50:17.254Z,84.78
2022-11-10T15:52:54.367Z,84.86
2022-11-10T15:55:49.974Z,85.32
2022-11-10T15:59:00.803Z,85.65
2022-11-10T16:01:36.673Z,85.71
2022-11-10T16:05:42.933Z,85.76
2022-11-10T16:08:15.735Z,86.38
2022-11-10T16:10:45.950Z,86.52
2022-11-10T16:13:38.295Z,86.73
2022-11-10T16:16:24.214Z,87.02
2022-11-10T16:18:52.265Z,87.09
2022-11-10T16:21:22.979Z,87.58
2022-11-10T16:24:09.933Z,87.59
2022-11-10T16:26:39.840Z,87.87
2022-11-10T16:29:38.911Z,87.64
2022-11-10T16:32:13.232Z,88.07
2022-11-10T16:34:46.656Z,87.89
2022-11-10T16:37:23.777Z,88.09
2022-11-10T16:39:52.186Z,88.20
2022-11-10T16:42:24.202Z,88.74
2022-11-10T16:45:10.079Z,89.02
2022-11-10T16:48:03.018Z,89.79
2022-11-10T16:50:38.637Z,89.90
2022-11-10T16:53:19.697Z,91.05
2022-11-10T16:55:55.417Z,91.17
2022-11-10T16:58:49.264Z,90.28
2022-11-10T17:01:35.414Z,90.51
2022-11-10T17:05:21.667Z,91.10
2022-11-10T17:07:59.062Z,90.91
2022-11-10T17:10:45.151Z,91.00
2022-11-10T17:13:50.488Z,91.51
2022-11-10T17:16:39.770Z,91.83
2022-11-10T17:19:23.690Z,91.92
2022-11-10T17:22:04.592Z,92.47
2022-11-10T17:24:40.849Z,92.89
2022-11-10T17:27:11.321Z,93.59
2022-11-10T17:29:42.026Z,93.05
2022-11-10T17:32:50.134Z,93.29
2022-11-10T17:35:25.816Z,93.12
2022-11-10T17:41:02.793Z,93.80
2022-11-10T17:43:45.583Z,93.11
2022-11-10T17:46:22.920Z,94.76
2022-11-10T17:49:04.471Z,94.48
2022-11-10T17:51:36.677Z,94.01
2022-11-10T17:54:20.588Z,94.36
2022-11-10T17:57:19.052Z,95.05
2022-11-10T18:06:45.888Z,95.10
2022-11-10T18:09:48.951Z,95.51
2022-11-10T18:15:23.783Z,96.34
2022-11-10T18:18:01.275Z,95.92
2022-11-10T18:20:31.718Z,95.52
2022-11-10T18:23:04.733Z,95.51
2022-11-10T18:25:54.149Z,95.70
2022-11-10T18:28:29.849Z,96.19
2022-11-10T18:34:49.406Z,95.46
2022-11-10T19:05:16.338Z,97.29
2022-11-10T20:35:40.702Z,98.18
2022-11-10T20:52:05.384Z,98.74
2022-11-10T20:55:52.662Z,98.57
2022-11-10T20:59:17.458Z,98.83
2022-11-10T21:09:29.676Z,99.04
2022-11-10T21:12:23.477Z,98.87
2022-11-10T21:14:52.647Z,99.20
2022-11-10T21:17:25.551Z,98.90
2022-11-10T21:19:57.082Z,99.13
2022-11-10T21:22:30.472Z,99.12
2022-11-10T21:24:57.522Z,98.75
2022-11-10T21:27:24.596Z,99.42
2022-11-10T21:30:06.816Z,99.43
2022-11-10T21:32:43.202Z,99.50
2022-11-10T21:35:17.070Z,99.71
2022-11-10T21:37:43.970Z,98.95
2022-11-10T21:40:15.124Z,99.21
2022-11-10T21:42:56.310Z,99.46
2022-11-10T21:45:26.896Z,99.27
2022-11-10T21:47:57.255Z,99.17
2022-11-10T21:50:32.626Z,99.12
2022-11-10T21:53:07.164Z,99.62
2022-11-10T21:55:35.270Z,100.00
2022-11-10T21:58:03.401Z,99.61
2022-11-10T22:00:32.694Z,99.28
2022-11-10T22:03:00.994Z,99.29
2022-11-10T22:05:28.363Z,99.44
2022-11-10T22:07:57.562Z,99.70
2022-11-10T22:10:42.878Z,99.67
2022-11-10T22:13:38.350Z,99.84
2022-11-10T22:16:45.396Z,100.00
2022-11-10T22:19:12.591Z,100.00
2022-11-10T22:21:42.278Z,100.00
2022-11-10T22:24:34.492Z,100.00
2022-11-10T22:27:18.031Z,100.00
2022-11-10T22:29:49.769Z,100.00
2022-11-10T22:32:16.663Z,100.00
2022-11-10T22:34:43.407Z,100.00
2022-11-10T22:37:15.698Z,100.00
2022-11-10T22:40:05.453Z,100.00
2022-11-10T22:42:55.186Z,100.00
2022-11-10T22:45:22.214Z,100.00
2022-11-10T22:48:07.530Z,100.00
2022-11-10T22:50:34.406Z,100.00
2022-11-10T22:53:09.090Z,100.00
2022-11-10T22:56:20.412Z,100.00
2022-11-10T22:58:47.742Z,100.00
2022-11-10T23:01:14.827Z,100.00
2022-11-10T23:03:44.390Z,100.00
2022-11-10T23:06:14.357Z,100.00
2022-11-10T23:08:41.702Z,100.00
2022-11-10T23:11:12.566Z,100.00
2022-11-10T23:13:40.635Z,100.00
2022-11-10T23:16:16.253Z,100.00
2022-11-10T23:18:45.617Z,100.00
2022-11-10T23:21:16.636Z,100.00
2022-11-10T23:23:51.517Z,100.00
2022-11-10T23:26:23.691Z,100.00
2022-11-10T23:28:54.454Z,100.00
2022-11-10T23:31:30.421Z,100.00
2022-11-10T23:33:58.074Z,100.00
2022-11-10T23:36:28.678Z,100.00
2022-11-10T23:39:05.116Z,100.00
2022-11-10T23:41:32.350Z,100.00
2022-11-10T23:44:05.128Z,100.00
2022-11-10T23:46:39.032Z,100.00
2022-11-10T23:49:13.230Z,100.00
2022-11-10T23:51:40.164Z,100.00
2022-11-10T23:54:19.729Z,100.00
2022-11-10T23:56:47.551Z,100.00
2022-11-10T23:59:28.497Z,100.00
